Time;durP1;ratioP1;P1;durP2;ratioP2;P2;SDS_P1;SDS_P2;PMS_P1;PMS_P2;Temp;Humidity;BMP_temperature;BMP_pressure;BME280_temperature;BME280_humidity;BME280_pressure;Samples;Min_cycle;Max_cycle;Signal;HPM_P1;HPM_P2
2021/06/22 00:02:04;;;;;;;14.48;4.43;;;25.00;96.70;;;;;;5041112;28;20051;-72
2021/06/22 00:04:33;;;;;;;18.40;4.72;;;24.90;96.70;;;;;;5035838;28;20057;-72
2021/06/22 00:07:03;;;;;;;18.27;5.57;;;25.00;96.70;;;;;;5040187;28;20090;-71
2021/06/22 00:09:32;;;;;;;16.85;4.30;;;24.90;96.70;;;;;;5044043;28;20037;-71
2021/06/22 00:12:03;;;;;;;18.48;4.90;;;24.90;96.70;;;;;;5043197;28;20142;-71
2021/06/22 00:14:33;;;;;;;14.90;4.28;;;24.70;96.70;;;;;;5039073;28;20404;-71
2021/06/22 00:17:02;;;;;;;17.17;4.57;;;24.70;96.70;;;;;;5040705;28;20518;-71
2021/06/22 00:19:32;;;;;;;15.60;5.43;;;24.80;96.70;;;;;;5044164;28;20384;-72
2021/06/22 00:22:02;;;;;;;19.85;5.07;;;24.80;96.70;;;;;;5044403;28;20383;-72
2021/06/22 00:24:32;;;;;;;18.83;4.43;;;24.70;96.70;;;;;;5037826;28;20506;-71
2021/06/22 00:27:04;;;;;;;17.98;4.50;;;24.70;96.70;;;;;;5026130;28;20143;-71
2021/06/22 00:29:34;;;;;;;18.92;4.53;;;24.80;96.70;;;;;;5045334;28;20126;-72
2021/06/22 00:32:04;;;;;;;18.27;4.78;;;24.90;96.70;;;;;;5044814;28;20061;-72
2021/06/22 00:34:34;;;;;;;19.90;4.88;;;24.90;96.70;;;;;;5039885;28;20043;-71
2021/06/22 00:37:03;;;;;;;17.23;4.93;;;24.90;96.70;;;;;;5018331;28;20033;-71
2021/06/22 00:39:33;;;;;;;18.88;3.97;;;24.90;96.70;;;;;;5044081;28;20449;-71
2021/06/22 00:42:05;;;;;;;21.75;4.35;;;24.80;96.70;;;;;;5058254;28;20041;-71
2021/06/22 00:44:44;;;;;;;13.80;3.67;;;24.90;96.70;;;;;;5052487;28;20110;-71
2021/06/22 00:47:16;;;;;;;18.23;5.30;;;24.80;96.70;;;;;;5040230;28;20457;-71
2021/06/22 00:49:48;;;;;;;18.30;5.30;;;24.70;96.70;;;;;;5038367;28;20595;-71
2021/06/22 00:52:21;;;;;;;20.05;4.55;;;24.70;96.70;;;;;;5040880;28;20040;-71
2021/06/22 00:54:51;;;;;;;17.13;4.53;;;24.60;96.70;;;;;;5039624;28;20041;-71
2021/06/22 00:57:24;;;;;;;12.85;3.65;;;24.70;96.70;;;;;;5043258;28;20044;-71
2021/06/22 00:59:54;;;;;;;20.63;4.43;;;24.70;96.70;;;;;;5039569;28;20049;-71
2021/06/22 01:02:24;;;;;;;18.30;4.70;;;24.80;96.70;;;;;;5042019;28;20053;-71
2021/06/22 01:04:54;;;;;;;14.50;4.30;;;24.80;96.70;;;;;;5045219;28;20123;-71
2021/06/22 01:07:33;;;;;;;19.52;4.70;;;24.90;96.70;;;;;;5033952;28;20677;-71
2021/06/22 01:10:03;;;;;;;17.42;4.38;;;24.90;96.70;;;;;;5039658;28;20557;-71
2021/06/22 01:12:47;;;;;;;17.85;4.15;;;24.90;96.70;;;;;;5034545;28;20041;-71
2021/06/22 01:15:21;;;;;;;21.02;4.43;;;24.90;96.70;;;;;;5049595;28;20590;-71
2021/06/22 01:17:54;;;;;;;19.60;4.63;;;24.90;96.70;;;;;;5042700;28;20038;-71
2021/06/22 01:20:29;;;;;;;18.95;4.35;;;25.00;96.70;;;;;;5041831;28;20147;-71
2021/06/22 01:23:04;;;;;;;14.98;3.92;;;25.10;96.70;;;;;;5038123;28;20068;-71
2021/06/22 01:25:40;;;;;;;18.90;4.10;;;25.10;96.70;;;;;;5040162;28;20044;-72
2021/06/22 01:28:09;;;;;;;17.50;4.18;;;25.00;96.70;;;;;;5039585;28;20048;-71
2021/06/22 01:30:42;;;;;;;14.80;4.55;;;25.00;96.70;;;;;;5042931;28;20049;-72
2021/06/22 01:33:13;;;;;;;19.60;4.85;;;25.00;96.70;;;;;;5021769;28;20102;-72
2021/06/22 01:35:43;;;;;;;20.27;4.40;;;24.80;96.70;;;;;;5040098;28;20578;-72
2021/06/22 01:38:15;;;;;;;20.40;4.53;;;24.80;96.70;;;;;;5038827;28;20047;-71
2021/06/22 01:40:46;;;;;;;19.48;4.85;;;24.80;96.70;;;;;;5042012;28;20582;-71
2021/06/22 01:43:22;;;;;;;16.25;4.85;;;24.70;96.70;;;;;;5040195;28;20049;-71
2021/06/22 01:45:54;;;;;;;16.58;4.68;;;24.70;96.70;;;;;;5027284;28;20045;-71
2021/06/22 01:48:26;;;;;;;14.43;4.13;;;24.60;96.70;;;;;;5040635;28;20644;-71
2021/06/22 01:51:01;;;;;;;13.25;4.18;;;24.60;96.70;;;;;;5049219;28;20127;-71
2021/06/22 01:53:34;;;;;;;19.13;4.68;;;24.60;96.70;;;;;;5040556;28;20136;-71
2021/06/22 01:56:12;;;;;;;15.95;4.80;;;24.60;96.70;;;;;;5037537;28;20128;-71
2021/06/22 01:58:47;;;;;;;;;;;24.60;96.70;;;;;;5043885;28;20072;-71
2021/06/22 02:01:33;;;;;;;16.33;4.03;;;24.60;96.70;;;;;;5042464;28;20374;-72
2021/06/22 02:04:29;;;;;;;17.83;4.85;;;24.60;96.70;;;;;;5021833;28;20053;-72
2021/06/22 02:07:05;;;;;;;19.33;4.72;;;24.60;96.70;;;;;;5021810;28;20033;-72
2021/06/22 02:10:10;;;;;;;16.40;4.30;;;24.50;96.70;;;;;;4987231;28;20053;-72
2021/06/22 02:13:03;;;;;;;15.93;4.32;;;24.50;96.70;;;;;;5006200;28;20038;-72
2021/06/22 02:15:34;;;;;;;15.30;4.68;;;24.30;96.70;;;;;;5023469;28;20396;-71
2021/06/22 02:18:06;;;;;;;18.85;5.03;;;24.10;96.70;;;;;;5005109;28;20083;-71
2021/06/22 02:20:38;;;;;;;17.58;3.85;;;24.10;96.70;;;;;;5022184;28;20115;-72
2021/06/22 02:23:10;;;;;;;12.70;4.72;;;24.10;96.70;;;;;;5004810;28;20068;-72
2021/06/22 02:25:42;;;;;;;14.15;4.63;;;24.00;96.70;;;;;;5019836;28;20491;-71
2021/06/22 02:28:15;;;;;;;17.38;4.25;;;24.00;96.70;;;;;;5010622;28;20056;-72
2021/06/22 02:30:46;;;;;;;19.27;4.28;;;23.90;96.70;;;;;;5017577;28;20281;-72
2021/06/22 02:33:25;;;;;;;16.02;5.03;;;23.90;96.70;;;;;;5022000;28;20052;-72
2021/06/22 02:36:13;;;;;;;22.10;5.53;;;23.90;96.70;;;;;;4985856;28;20197;-72
2021/06/22 02:38:57;;;;;;;20.13;4.72;;;24.00;96.70;;;;;;5007495;28;20041;-72
2021/06/22 02:41:45;;;;;;;23.17;5.68;;;24.00;96.70;;;;;;5040721;28;20485;-72
2021/06/22 02:44:14;;;;;;;20.52;5.10;;;24.00;96.70;;;;;;5043231;28;20057;-72
2021/06/22 02:46:47;;;;;;;17.95;4.97;;;24.10;96.70;;;;;;5046039;28;20052;-72
2021/06/22 02:49:17;;;;;;;23.63;5.13;;;24.10;96.70;;;;;;5039445;28;20132;-72
2021/06/22 02:51:49;;;;;;;15.85;5.20;;;24.10;96.70;;;;;;5041235;28;20045;-72
2021/06/22 02:54:20;;;;;;;21.55;4.80;;;24.10;96.70;;;;;;5040260;28;20096;-72
2021/06/22 02:56:52;;;;;;;15.80;4.93;;;24.10;96.70;;;;;;5041276;28;20073;-72
2021/06/22 02:59:23;;;;;;;14.10;4.60;;;24.10;96.70;;;;;;5044075;28;20135;-72
2021/06/22 03:01:56;;;;;;;20.30;6.03;;;24.00;96.70;;;;;;5043817;28;20049;-72
2021/06/22 03:04:26;;;;;;;20.98;4.85;;;23.90;96.70;;;;;;5041101;28;20042;-72
2021/06/22 03:06:56;;;;;;;17.33;4.90;;;23.90;96.70;;;;;;5051490;28;20141;-72
2021/06/22 03:09:30;;;;;;;18.02;4.68;;;24.00;96.70;;;;;;5038166;28;20061;-72
2021/06/22 03:12:04;;;;;;;20.45;4.97;;;23.90;96.70;;;;;;5037598;28;20045;-72
2021/06/22 03:14:54;;;;;;;16.17;4.78;;;23.90;96.70;;;;;;5042573;28;20421;-72
2021/06/22 03:17:32;;;;;;;23.13;5.15;;;24.00;96.70;;;;;;5039404;28;20207;-72
2021/06/22 03:20:07;;;;;;;21.33;4.72;;;24.00;96.70;;;;;;5040965;28;20037;-72
2021/06/22 03:22:38;;;;;;;18.02;4.70;;;24.00;96.70;;;;;;5039103;28;20080;-72
2021/06/22 03:25:10;;;;;;;18.88;5.63;;;24.10;96.70;;;;;;5043667;28;20577;-72
2021/06/22 03:27:51;;;;;;;16.75;5.03;;;24.10;96.70;;;;;;5043013;28;20559;-72
2021/06/22 03:30:32;;;;;;;18.95;5.72;;;24.00;96.70;;;;;;5050819;28;20048;-72
2021/06/22 03:33:03;;;;;;;17.60;4.97;;;24.10;96.70;;;;;;5044309;28;20044;-72
2021/06/22 03:35:33;;;;;;;16.25;4.75;;;24.10;96.70;;;;;;5048489;28;20047;-72
2021/06/22 03:38:03;;;;;;;18.02;5.50;;;24.20;96.70;;;;;;5035889;28;20471;-72
2021/06/22 03:40:33;;;;;;;17.38;4.90;;;24.20;96.70;;;;;;5043617;28;20063;-72
2021/06/22 03:43:08;;;;;;;13.07;4.53;;;24.20;96.70;;;;;;5041626;28;20049;-72
2021/06/22 03:45:48;;;;;;;17.90;4.25;;;24.30;96.70;;;;;;5043981;28;20051;-72
2021/06/22 03:48:21;;;;;;;12.55;4.30;;;24.30;96.70;;;;;;5045044;28;20471;-72
2021/06/22 03:50:54;;;;;;;15.88;4.50;;;24.30;96.70;;;;;;5046686;28;20556;-72
2021/06/22 03:53:30;;;;;;;13.63;4.10;;;24.40;96.70;;;;;;5060328;28;20083;-72
2021/06/22 03:56:02;;;;;;;15.07;4.10;;;24.40;96.70;;;;;;5026661;28;20693;-72
2021/06/22 03:58:49;;;;;;;16.02;4.75;;;24.40;96.70;;;;;;5042531;28;20052;-72
2021/06/22 04:01:19;;;;;;;12.25;4.10;;;24.40;96.70;;;;;;5028367;28;20075;-72
2021/06/22 04:03:48;;;;;;;13.77;4.30;;;24.40;96.70;;;;;;5040799;28;20090;-72
2021/06/22 04:06:26;;;;;;;13.60;4.10;;;24.30;96.70;;;;;;5051369;28;20041;-72
2021/06/22 04:13:09;;;;;;;14.30;4.57;;;24.20;96.70;;;;;;5039253;28;20239;-72
2021/06/22 04:15:41;;;;;;;14.65;4.93;;;24.20;96.70;;;;;;5036280;28;20487;-72
2021/06/22 04:18:11;;;;;;;15.32;5.03;;;24.20;96.70;;;;;;5039286;28;20052;-72
2021/06/22 04:20:42;;;;;;;19.17;5.13;;;24.20;96.70;;;;;;5040149;28;20095;-72
2021/06/22 04:23:13;;;;;;;15.80;5.28;;;24.20;96.70;;;;;;5037231;28;20053;-72
2021/06/22 04:25:43;;;;;;;17.63;5.00;;;24.20;96.70;;;;;;5048797;28;20037;-72
2021/06/22 04:28:14;;;;;;;14.85;5.18;;;24.20;96.70;;;;;;5045333;28;20411;-72
2021/06/22 04:30:46;;;;;;;12.63;4.63;;;24.30;96.70;;;;;;5037767;28;20537;-72
2021/06/22 04:33:16;;;;;;;15.90;5.22;;;24.30;96.70;;;;;;5038621;28;20041;-72
2021/06/22 04:35:46;;;;;;;18.35;6.60;;;24.30;96.70;;;;;;5038879;28;20040;-72
2021/06/22 04:38:15;;;;;;;14.80;5.70;;;24.10;96.70;;;;;;5042333;28;20072;-72
2021/06/22 04:40:46;;;;;;;22.50;9.05;;;24.00;96.70;;;;;;5041280;28;20045;-72
2021/06/22 04:43:16;;;;;;;20.77;8.43;;;24.10;96.70;;;;;;5041495;28;20060;-72
2021/06/22 04:45:46;;;;;;;16.05;6.97;;;24.10;96.70;;;;;;5041133;28;20032;-72
2021/06/22 04:48:15;;;;;;;23.13;7.22;;;24.10;96.70;;;;;;5042332;28;20731;-71
2021/06/22 04:50:43;;;;;;;17.98;5.85;;;24.10;96.70;;;;;;5045932;28;20500;-72
2021/06/22 04:53:11;;;;;;;21.02;5.72;;;24.00;96.70;;;;;;5040384;28;20037;-72
2021/06/22 04:55:40;;;;;;;17.35;5.95;;;23.90;96.70;;;;;;5043708;28;20041;-72
2021/06/22 04:58:10;;;;;;;24.20;6.50;;;23.80;96.70;;;;;;5035588;28;20047;-72
2021/06/22 05:00:38;;;;;;;22.67;6.85;;;23.80;96.70;;;;;;5043588;28;20060;-72
2021/06/22 05:03:08;;;;;;;22.50;6.13;;;23.80;96.70;;;;;;5045162;28;20039;-72
2021/06/22 05:05:36;;;;;;;24.58;6.35;;;23.80;96.70;;;;;;5036650;28;20049;-72
2021/06/22 05:08:05;;;;;;;17.52;6.05;;;23.90;96.70;;;;;;5036951;28;20044;-72
2021/06/22 05:10:33;;;;;;;21.83;5.53;;;23.90;96.70;;;;;;5044203;28;20106;-72
2021/06/22 05:13:01;;;;;;;21.63;5.93;;;23.90;96.70;;;;;;5039983;28;20095;-72
2021/06/22 05:15:30;;;;;;;21.58;6.68;;;24.00;96.70;;;;;;5039955;28;20051;-72
2021/06/22 05:17:58;;;;;;;22.08;6.82;;;24.00;96.70;;;;;;5040559;28;20398;-72
2021/06/22 05:20:28;;;;;;;22.42;6.70;;;24.10;96.70;;;;;;5039947;28;20044;-72
2021/06/22 05:22:56;;;;;;;19.92;6.65;;;24.20;96.70;;;;;;5038392;28;20433;-72
2021/06/22 05:25:25;;;;;;;19.13;6.70;;;24.10;96.70;;;;;;5042564;28;20441;-72
2021/06/22 05:27:54;;;;;;;18.02;6.20;;;24.00;96.70;;;;;;5036857;28;20044;-70
2021/06/22 05:30:22;;;;;;;18.52;6.18;;;24.00;96.70;;;;;;5041590;28;20123;-71
2021/06/22 05:32:51;;;;;;;28.98;7.60;;;23.90;96.70;;;;;;5061833;28;20040;-70
2021/06/22 05:35:19;;;;;;;24.42;7.90;;;24.00;96.70;;;;;;5041388;28;20457;-71
2021/06/22 05:37:49;;;;;;;25.00;8.07;;;24.00;96.70;;;;;;5036350;28;20041;-71
2021/06/22 05:40:18;;;;;;;19.40;7.07;;;23.90;96.70;;;;;;5041913;28;20036;-71
2021/06/22 05:42:47;;;;;;;17.67;8.20;;;23.90;96.70;;;;;;5042973;28;20053;-71
2021/06/22 05:45:15;;;;;;;19.70;7.65;;;23.90;96.70;;;;;;5040894;28;20044;-71
2021/06/22 05:47:44;;;;;;;18.83;7.38;;;24.00;96.70;;;;;;5037718;28;20049;-70
2021/06/22 05:50:12;;;;;;;18.70;7.68;;;23.90;96.70;;;;;;5040106;28;20056;-71
2021/06/22 05:52:43;;;;;;;25.33;7.43;;;23.90;96.70;;;;;;5039949;28;20489;-70
2021/06/22 05:55:18;;;;;;;20.33;7.65;;;23.90;96.70;;;;;;5036034;28;20509;-70
2021/06/22 05:57:47;;;;;;;21.70;7.15;;;23.90;96.70;;;;;;5045390;28;20399;-73
2021/06/22 06:00:18;;;;;;;21.40;7.57;;;23.90;96.70;;;;;;5039108;28;20071;-72
2021/06/22 06:02:47;;;;;;;21.98;7.03;;;23.90;96.70;;;;;;5042457;28;20069;-73
2021/06/22 06:05:16;;;;;;;21.70;8.65;;;24.00;96.70;;;;;;5025122;28;20139;-73
2021/06/22 06:07:44;;;;;;;17.73;7.15;;;24.10;96.70;;;;;;5024629;28;20593;-74
2021/06/22 06:10:15;;;;;;;18.55;8.25;;;24.20;96.70;;;;;;5040657;28;20041;-73
2021/06/22 06:12:44;;;;;;;27.60;8.07;;;24.40;96.70;;;;;;5039121;28;20441;-73
2021/06/22 06:15:13;;;;;;;21.70;8.73;;;24.50;96.70;;;;;;5044919;28;20124;-71
2021/06/22 06:17:42;;;;;;;19.50;8.15;;;24.60;96.70;;;;;;5040711;28;20216;-71
2021/06/22 06:20:12;;;;;;;20.02;8.25;;;24.70;96.70;;;;;;5038767;28;20049;-71
2021/06/22 06:22:42;;;;;;;22.02;8.70;;;24.80;96.70;;;;;;5024441;28;20586;-71
2021/06/22 06:25:12;;;;;;;21.65;8.35;;;24.90;96.70;;;;;;5043799;28;20111;-72
2021/06/22 06:27:49;;;;;;;19.45;9.25;;;24.90;96.70;;;;;;5038558;28;20402;-72
2021/06/22 06:30:23;;;;;;;33.95;9.73;;;25.00;96.70;;;;;;5039725;28;20128;-72
2021/06/22 06:32:52;;;;;;;24.77;10.07;;;24.90;96.70;;;;;;5038324;28;20037;-72
2021/06/22 06:35:21;;;;;;;28.88;9.57;;;24.80;96.70;;;;;;5036820;28;20107;-72
2021/06/22 06:37:51;;;;;;;26.48;9.32;;;24.70;96.70;;;;;;5037573;28;20124;-72
2021/06/22 06:40:20;;;;;;;25.52;10.15;;;24.70;96.70;;;;;;5035733;28;20131;-72
2021/06/22 06:42:49;;;;;;;28.55;10.65;;;24.70;96.70;;;;;;5041752;28;20051;-72
2021/06/22 06:45:19;;;;;;;19.38;8.68;;;24.60;96.70;;;;;;5041685;28;20086;-72
2021/06/22 06:47:49;;;;;;;29.02;10.75;;;24.60;96.70;;;;;;5045483;28;20045;-72
2021/06/22 06:50:17;;;;;;;22.67;9.00;;;24.70;96.70;;;;;;5044162;28;20060;-72
2021/06/22 06:52:46;;;;;;;28.42;9.60;;;24.70;96.70;;;;;;5027453;28;20045;-72
2021/06/22 06:55:27;;;;;;;24.40;9.65;;;24.80;96.70;;;;;;5039567;28;20037;-72
2021/06/22 06:58:00;;;;;;;24.92;9.13;;;24.80;96.70;;;;;;5038747;28;20123;-72
2021/06/22 07:00:31;;;;;;;26.08;8.77;;;24.90;96.70;;;;;;5042525;28;20045;-72
2021/06/22 07:02:59;;;;;;;26.55;8.95;;;25.00;96.70;;;;;;5040757;28;20494;-72
2021/06/22 07:05:28;;;;;;;20.27;8.55;;;25.10;96.70;;;;;;5041261;28;20079;-72
2021/06/22 07:07:57;;;;;;;23.65;9.52;;;25.20;96.70;;;;;;5042865;28;20052;-72
2021/06/22 07:10:25;;;;;;;31.60;8.68;;;25.40;96.70;;;;;;5044829;28;20060;-72
2021/06/22 07:12:57;;;;;;;25.55;9.40;;;25.30;96.70;;;;;;5043909;28;20224;-72
2021/06/22 07:15:27;;;;;;;25.95;8.98;;;25.40;96.70;;;;;;5045217;28;20406;-72
2021/06/22 07:17:56;;;;;;;16.65;8.55;;;25.50;96.70;;;;;;5050753;28;20042;-72
2021/06/22 07:20:24;;;;;;;20.40;8.32;;;25.60;96.70;;;;;;5039874;28;20041;-72
2021/06/22 07:22:54;;;;;;;21.95;7.65;;;25.70;96.70;;;;;;5043949;28;20039;-72
2021/06/22 07:25:25;;;;;;;24.98;8.30;;;25.70;96.70;;;;;;5045412;28;20152;-72
2021/06/22 07:27:56;;;;;;;22.05;8.25;;;25.70;96.70;;;;;;5046623;28;20128;-72
2021/06/22 07:30:27;;;;;;;24.33;8.82;;;25.70;96.70;;;;;;5040542;28;20561;-72
2021/06/22 07:32:57;;;;;;;21.92;8.00;;;25.70;96.70;;;;;;5046493;28;20411;-71
2021/06/22 07:35:25;;;;;;;25.40;8.52;;;25.70;96.70;;;;;;5042663;28;20051;-71
2021/06/22 07:37:55;;;;;;;25.98;9.05;;;25.70;96.70;;;;;;5042706;28;20060;-71
2021/06/22 07:40:23;;;;;;;25.13;8.70;;;25.80;96.70;;;;;;5040593;28;20140;-72
2021/06/22 07:42:53;;;;;;;30.90;8.95;;;25.80;96.70;;;;;;5038633;28;20383;-71
2021/06/22 07:45:22;;;;;;;19.90;6.78;;;25.80;96.70;;;;;;5048314;28;20080;-72
2021/06/22 07:47:55;;;;;;;21.35;7.20;;;25.80;96.70;;;;;;5041101;28;20049;-71
2021/06/22 07:50:24;;;;;;;24.38;7.55;;;25.80;96.70;;;;;;5044519;28;20044;-71
2021/06/22 07:52:52;;;;;;;23.35;7.93;;;25.90;96.70;;;;;;5042381;28;20048;-71
2021/06/22 07:55:20;;;;;;;22.85;7.03;;;26.00;96.70;;;;;;5040254;28;20048;-71
2021/06/22 07:57:51;;;;;;;21.08;7.40;;;26.20;96.70;;;;;;5039794;28;20077;-71
2021/06/22 08:01:05;;;;;;;22.25;7.82;;;26.30;96.70;;;;;;5041586;28;20048;-71
2021/06/22 08:03:17;;;;;;;23.38;6.13;;;26.50;96.70;;;;;;5031284;28;20056;-71
2021/06/22 08:05:48;;;;;;;18.83;6.82;;;26.50;96.70;;;;;;5046631;28;20044;-71
2021/06/22 08:08:18;;;;;;;19.58;6.53;;;26.60;96.70;;;;;;5043443;28;20511;-71
2021/06/22 08:10:48;;;;;;;18.80;6.07;;;26.70;96.70;;;;;;5037074;28;20057;-71
2021/06/22 08:13:16;;;;;;;25.33;6.25;;;26.70;96.70;;;;;;5042959;28;20049;-71
2021/06/22 08:15:45;;;;;;;19.42;5.93;;;26.50;96.70;;;;;;5044483;28;20045;-71
2021/06/22 08:18:13;;;;;;;23.27;6.13;;;26.40;96.70;;;;;;5041410;28;20044;-71
2021/06/22 08:20:43;;;;;;;22.17;6.10;;;26.30;96.70;;;;;;5040901;28;20068;-71
2021/06/22 08:23:12;;;;;;;21.75;6.30;;;26.30;96.70;;;;;;5040088;28;20598;-71
2021/06/22 08:25:40;;;;;;;23.60;6.32;;;26.30;96.70;;;;;;5036963;28;20588;-71
2021/06/22 08:28:08;;;;;;;18.08;5.00;;;26.30;96.70;;;;;;5038959;28;20516;-71
2021/06/22 08:30:37;;;;;;;20.48;6.40;;;26.30;96.70;;;;;;5042059;28;20045;-71
2021/06/22 08:33:07;;;;;;;20.75;6.40;;;26.30;96.70;;;;;;5036749;28;20049;-71
2021/06/22 08:35:36;;;;;;;21.25;5.38;;;26.60;96.70;;;;;;5041606;28;20041;-71
2021/06/22 08:38:10;;;;;;;17.50;5.60;;;26.80;96.70;;;;;;5037351;28;20056;-72
2021/06/22 08:40:40;;;;;;;15.23;5.47;;;26.90;96.70;;;;;;5039439;28;20044;-72
2021/06/22 08:43:11;;;;;;;22.23;5.72;;;27.10;96.70;;;;;;5039694;28;20090;-72
2021/06/22 08:45:39;;;;;;;19.67;5.55;;;27.30;96.70;;;;;;5051352;28;20132;-72
2021/06/22 08:48:09;;;;;;;15.82;5.13;;;27.40;96.70;;;;;;5041693;28;20152;-72
2021/06/22 08:50:39;;;;;;;21.58;5.30;;;27.60;96.70;;;;;;5038845;28;20409;-72
2021/06/22 08:53:11;;;;;;;17.08;5.57;;;27.50;96.70;;;;;;5037074;28;20045;-72
2021/06/22 08:55:39;;;;;;;15.85;6.22;;;27.60;96.70;;;;;;5042751;28;20502;-72
2021/06/22 08:58:08;;;;;;;18.30;4.88;;;27.70;96.70;;;;;;5039475;28;20040;-72
2021/06/22 09:00:39;;;;;;;15.00;5.20;;;27.70;96.70;;;;;;5041880;28;20049;-72
2021/06/22 09:03:11;;;;;;;16.17;5.10;;;27.70;96.70;;;;;;5038720;28;20052;-72
2021/06/22 09:05:39;;;;;;;27.48;5.50;;;27.80;96.70;;;;;;5043929;28;20092;-72
2021/06/22 09:08:17;;;;;;;16.85;4.85;;;27.80;96.70;;;;;;5043072;28;20540;-72
2021/06/22 09:10:46;;;;;;;17.08;5.18;;;27.70;96.70;;;;;;5037110;28;20131;-72
2021/06/22 09:13:15;;;;;;;19.75;5.38;;;27.70;96.70;;;;;;5045002;28;20128;-72
2021/06/22 09:15:45;;;;;;;14.52;4.57;;;27.80;96.70;;;;;;5044995;28;20045;-72
2021/06/22 09:18:32;;;;;;;17.42;4.78;;;28.00;96.70;;;;;;5038767;28;20519;-71
2021/06/22 09:21:01;;;;;;;17.27;4.05;;;27.90;96.70;;;;;;5042895;28;20044;-72
2021/06/22 09:23:32;;;;;;;17.25;4.55;;;27.60;96.70;;;;;;5040592;28;20116;-72
2021/06/22 09:26:09;;;;;;;22.70;5.28;;;27.50;96.70;;;;;;5035122;28;20049;-72
2021/06/22 09:28:37;;;;;;;20.70;4.82;;;27.60;96.70;;;;;;5044193;28;20486;-72
2021/06/22 09:31:07;;;;;;;12.45;3.60;;;27.70;96.70;;;;;;5038959;28;20045;-71
2021/06/22 09:33:37;;;;;;;13.15;4.28;;;27.90;95.90;;;;;;5041139;28;20061;-72
2021/06/22 09:36:11;;;;;;;14.80;4.03;;;27.90;95.20;;;;;;5041645;28;20038;-72
2021/06/22 09:38:42;;;;;;;23.40;4.50;;;27.90;94.40;;;;;;5039856;28;20079;-71
2021/06/22 09:41:26;;;;;;;14.18;4.68;;;28.00;94.20;;;;;;5040794;28;20043;-72
2021/06/22 09:44:02;;;;;;;21.10;4.63;;;28.00;95.20;;;;;;5040200;28;20084;-72
2021/06/22 09:46:33;;;;;;;13.77;4.00;;;28.00;95.00;;;;;;5035754;28;20414;-71
2021/06/22 09:49:02;;;;;;;11.90;3.58;;;28.20;94.40;;;;;;5040579;28;20060;-72
2021/06/22 09:51:40;;;;;;;16.25;3.38;;;28.10;94.60;;;;;;5036952;28;20072;-73
2021/06/22 09:54:15;;;;;;;15.10;3.45;;;28.40;93.20;;;;;;5046131;28;20959;-73
2021/06/22 09:57:01;;;;;;;15.07;3.42;;;28.40;92.00;;;;;;5038606;28;20534;-74
2021/06/22 09:59:31;;;;;;;8.50;3.08;;;28.50;91.80;;;;;;5038274;28;20057;-73
2021/06/22 10:02:10;;;;;;;13.82;3.20;;;28.40;90.70;;;;;;5039073;28;20084;-73
2021/06/22 10:04:43;;;;;;;12.25;3.63;;;28.40;89.90;;;;;;5042181;28;20037;-73
2021/06/22 10:07:13;;;;;;;10.77;3.45;;;28.50;89.80;;;;;;5041664;28;20041;-71
2021/06/22 10:09:54;;;;;;;14.13;3.47;;;28.50;90.50;;;;;;5036591;28;20154;-71
2021/06/22 10:12:23;;;;;;;8.52;3.15;;;28.50;91.70;;;;;;5040007;28;20041;-71
2021/06/22 10:14:53;;;;;;;10.23;3.03;;;28.60;91.30;;;;;;5039048;28;20045;-71
2021/06/22 10:17:23;;;;;;;11.95;3.00;;;28.80;90.70;;;;;;5037051;28;20387;-72
2021/06/22 10:19:52;;;;;;;13.82;3.67;;;28.90;90.70;;;;;;5039599;28;20090;-71
2021/06/22 10:22:23;;;;;;;24.88;4.35;;;28.90;89.50;;;;;;5041244;28;20097;-71
2021/06/22 10:24:57;;;;;;;12.77;3.25;;;29.10;89.10;;;;;;5028992;28;20083;-70
2021/06/22 10:27:26;;;;;;;8.57;2.75;;;29.20;88.00;;;;;;5041631;28;20037;-71
2021/06/22 10:29:55;;;;;;;13.55;3.70;;;29.10;88.50;;;;;;5050419;28;20414;-70
2021/06/22 10:32:26;;;;;;;12.85;3.55;;;29.00;89.80;;;;;;5041780;28;20049;-70
2021/06/22 10:34:56;;;;;;;16.13;3.38;;;29.30;89.50;;;;;;5024897;28;20380;-70
2021/06/22 10:37:28;;;;;;;11.20;3.15;;;29.40;88.80;;;;;;5041635;28;20056;-72
2021/06/22 10:40:05;;;;;;;11.05;3.38;;;29.50;88.60;;;;;;5044835;28;20048;-72
2021/06/22 10:42:40;;;;;;;13.50;3.35;;;29.60;88.00;;;;;;5044163;28;20124;-73
2021/06/22 10:45:10;;;;;;;11.68;3.25;;;29.70;87.00;;;;;;5042402;28;20143;-73
2021/06/22 10:47:39;;;;;;;12.70;2.60;;;29.70;86.20;;;;;;5042682;28;20443;-73
2021/06/22 10:50:14;;;;;;;12.20;3.33;;;29.80;87.00;;;;;;5030620;28;20497;-73
2021/06/22 10:52:51;;;;;;;20.83;4.20;;;29.90;86.70;;;;;;5041226;28;20046;-73
2021/06/22 10:55:46;;;;;;;12.48;3.47;;;29.90;86.60;;;;;;5043119;28;20044;-73
2021/06/22 10:58:17;;;;;;;11.85;3.50;;;29.90;87.10;;;;;;5030778;28;20050;-73
2021/06/22 11:01:14;;;;;;;13.63;3.40;;;30.00;87.00;;;;;;5041889;28;20057;-71
2021/06/22 11:03:42;;;;;;;13.98;3.10;;;30.10;86.30;;;;;;5043641;28;20052;-70
2021/06/22 11:06:34;;;;;;;13.75;3.35;;;30.30;86.80;;;;;;5038749;28;20502;-71
2021/06/22 11:09:24;;;;;;;23.63;3.60;;;30.50;85.40;;;;;;5028794;28;20064;-72
2021/06/22 11:12:23;;;;;;;9.25;3.75;;;30.60;85.10;;;;;;5037375;28;20140;-72
2021/06/22 11:15:04;;;;;;;11.27;3.27;;;30.60;84.80;;;;;;5025592;28;20084;-72
2021/06/22 11:17:57;;;;;;;12.05;2.90;;;30.60;84.50;;;;;;5037697;28;20279;-71
2021/06/22 11:20:29;;;;;;;10.20;2.88;;;30.60;84.30;;;;;;5060302;28;20146;-72
2021/06/22 11:23:06;;;;;;;9.70;3.08;;;30.80;83.40;;;;;;5043223;28;20391;-72
2021/06/22 11:25:49;;;;;;;9.60;2.72;;;30.90;83.30;;;;;;5043211;28;20045;-71
2021/06/22 11:28:18;;;;;;;12.13;3.22;;;31.00;82.70;;;;;;5041651;28;20040;-70
2021/06/22 11:30:50;;;;;;;8.77;2.47;;;31.00;82.80;;;;;;5039020;28;20100;-70
2021/06/22 11:33:44;;;;;;;12.40;3.30;;;31.10;81.00;;;;;;5041930;28;20049;-70
2021/06/22 11:36:43;;;;;;;9.98;3.03;;;31.10;81.10;;;;;;5041042;28;20045;-70
2021/06/22 11:39:18;;;;;;;14.35;3.40;;;31.30;81.30;;;;;;5040893;28;20049;-70
2021/06/22 11:42:17;;;;;;;11.63;2.90;;;31.40;81.30;;;;;;5042382;28;20308;-70
2021/06/22 11:44:47;;;;;;;11.57;3.00;;;31.20;81.10;;;;;;5054710;28;20048;-70
2021/06/22 11:47:56;;;;;;;10.27;2.78;;;31.40;80.10;;;;;;5038636;28;20041;-70
2021/06/22 11:50:27;;;;;;;11.93;2.72;;;31.50;80.50;;;;;;5044927;28;20036;-70
2021/06/22 11:53:06;;;;;;;11.52;3.28;;;31.70;79.20;;;;;;5041294;28;20036;-70
2021/06/22 11:55:53;;;;;;;9.93;2.95;;;31.70;78.60;;;;;;5053131;28;20044;-70
2021/06/22 11:58:26;;;;;;;11.32;2.92;;;31.50;78.20;;;;;;5041478;28;20045;-70
2021/06/22 12:00:56;;;;;;;15.52;2.78;;;31.50;78.60;;;;;;5045069;28;20053;-70
2021/06/22 12:03:33;;;;;;;19.13;2.95;;;31.50;77.70;;;;;;5040891;28;20042;-71
2021/06/22 12:06:11;;;;;;;6.72;2.45;;;31.60;78.00;;;;;;5038768;28;20517;-71
2021/06/22 12:08:40;;;;;;;7.18;2.40;;;31.70;76.80;;;;;;5038917;28;20415;-70
2021/06/22 12:11:10;;;;;;;12.10;2.67;;;31.70;75.70;;;;;;5043408;28;20041;-70
2021/06/22 12:13:40;;;;;;;9.85;2.70;;;31.70;77.80;;;;;;5040767;28;20048;-71
2021/06/22 12:16:26;;;;;;;15.93;3.05;;;31.70;76.90;;;;;;5042696;28;20406;-70
2021/06/22 12:18:57;;;;;;;13.93;3.05;;;31.80;77.50;;;;;;5043251;28;20144;-70
2021/06/22 12:21:27;;;;;;;13.68;3.20;;;32.00;76.40;;;;;;5039777;28;20501;-70
2021/06/22 12:24:03;;;;;;;8.80;2.65;;;32.10;75.60;;;;;;5040285;28;20440;-70
2021/06/22 12:26:31;;;;;;;;;;;32.10;75.60;;;;;;5041623;28;20072;-70
2021/06/22 12:28:59;;;;;;;10.43;2.58;;;32.20;75.50;;;;;;5042129;28;19974;-70
2021/06/22 12:31:27;;;;;;;10.38;2.83;;;32.20;75.20;;;;;;5042500;28;20499;-70
2021/06/22 12:34:02;;;;;;;10.93;3.28;;;32.30;74.90;;;;;;5026578;28;20045;-70
2021/06/22 12:36:34;;;;;;;10.40;2.80;;;32.40;75.60;;;;;;5041108;28;20045;-70
2021/06/22 12:39:04;;;;;;;19.15;3.83;;;32.30;75.90;;;;;;5046979;28;20117;-70
2021/06/22 12:41:33;;;;;;;28.02;4.10;;;32.30;76.10;;;;;;5040366;28;20506;-70
2021/06/22 12:44:06;;;;;;;8.98;2.80;;;32.30;75.80;;;;;;5039964;28;20514;-70
2021/06/22 12:46:35;;;;;;;12.60;2.70;;;32.30;75.40;;;;;;5040337;28;20041;-70
2021/06/22 12:49:07;;;;;;;15.93;3.28;;;32.40;75.60;;;;;;5044273;28;20132;-70
2021/06/22 12:51:36;;;;;;;8.63;2.70;;;32.30;75.70;;;;;;5045086;28;20053;-70
2021/06/22 12:54:06;;;;;;;9.27;2.90;;;32.60;75.70;;;;;;5060843;28;20131;-70
2021/06/22 12:56:47;;;;;;;9.50;2.70;;;32.80;75.20;;;;;;5040803;28;20513;-70
2021/06/22 12:59:20;;;;;;;7.90;2.78;;;32.80;73.70;;;;;;5039689;28;20050;-70
2021/06/22 13:01:50;;;;;;;13.85;3.38;;;32.90;74.30;;;;;;5042011;28;20379;-70
2021/06/22 13:04:22;;;;;;;10.52;2.65;;;33.10;73.50;;;;;;5042466;28;20294;-70
2021/06/22 13:06:52;;;;;;;10.48;2.63;;;33.20;72.10;;;;;;5041123;28;20049;-70
2021/06/22 13:09:22;;;;;;;15.38;2.88;;;33.40;71.70;;;;;;5043367;28;20068;-70
2021/06/22 13:11:53;;;;;;;8.70;2.65;;;33.40;72.30;;;;;;5041004;28;20098;-70